Virginia Foothills, Nevada
Current Conditions -  °F | °C
As of 11:55 AM on Friday 28 Nov 2014 (Local Time) from KRNO Reporting Station
Scattered Clouds Scattered Clouds  
Wind Chill: 67°   Ceiling: Unl
Heat Index: 67°   Visibility: 10mi
Dew Point: -14°   Wind: 17mph
Humidity: 4%   Direction: 250°WSW
Pressure: 29.93"   Gusts: 29mph
Location:  39.3905°N, 119.807°W
Report Text: KRNO 281955Z 25015G25KT 210V280 10SM FEW100 SCT150 SCT180 19/M26 A2993 RMK AO2 PK WND 27028/1859 SLP102 ACSL DSNT NE SE SW T01941256
Loading
Personal Weather Stations






























Interactive Weather Map New forecast layout! Learn more

10-Day Weather Forecast

Advertisements
Track Severe Weather on mobile